Time;durP1;ratioP1;P1;durP2;ratioP2;P2;SDS_P1;SDS_P2;PMS_P1;PMS_P2;Temp;Humidity;BMP_temperature;BMP_pressure;BME280_temperature;BME280_humidity;BME280_pressure;Samples;Min_cycle;Max_cycle;Signal;HPM_P1;HPM_P2
2022/02/12 00:00:14;;;;;;;30.02;17.33;;;;;;;0.51;75.67;94007.72;5092004;28;20474;-39
2022/02/12 00:02:40;;;;;;;32.03;19.20;;;;;;;0.55;74.61;94004.81;5091676;28;20031;-36
2022/02/12 00:05:06;;;;;;;37.70;17.73;;;;;;;0.40;75.04;93985.81;5091883;28;20404;-37
2022/02/12 00:07:32;;;;;;;31.40;15.40;;;;;;;0.59;76.15;93997.19;5105792;28;20036;-38
2022/02/12 00:09:57;;;;;;;35.38;18.60;;;;;;;0.72;75.10;94005.81;5112253;28;20030;-38
2022/02/12 00:12:22;;;;;;;31.75;16.77;;;;;;;0.73;76.06;94001.88;5111770;28;20019;-39
2022/02/12 00:14:48;;;;;;;26.50;13.38;;;;;;;0.83;76.42;93995.09;5110569;28;20023;-38
2022/02/12 00:17:13;;;;;;;20.30;12.55;;;;;;;1.04;75.55;94007.50;5111770;28;20027;-38
2022/02/12 00:19:39;;;;;;;24.55;13.93;;;;;;;1.18;76.02;94009.44;5110800;28;20022;-41
2022/02/12 00:22:04;;;;;;;100.28;37.03;;;;;;;1.23;76.27;94013.44;5111677;28;20034;-40
2022/02/12 00:24:30;;;;;;;307.90;93.97;;;;;;;1.41;76.61;94011.19;5111668;28;20024;-37
2022/02/12 00:26:55;;;;;;;102.82;34.35;;;;;;;1.47;76.38;94003.84;5111511;28;20019;-38
2022/02/12 00:29:21;;;;;;;74.97;27.15;;;;;;;1.61;75.66;94015.91;5111490;28;20035;-38
2022/02/12 00:31:46;;;;;;;30.98;14.95;;;;;;;1.72;75.45;94016.03;5111443;28;20081;-36
2022/02/12 00:34:12;;;;;;;19.77;10.80;;;;;;;1.81;74.50;94004.25;5111840;28;20012;-36
2022/02/12 00:36:37;;;;;;;17.25;10.43;;;;;;;1.90;74.05;94017.72;5102517;28;20433;-38
2022/02/12 00:39:03;;;;;;;12.98;8.02;;;;;;;2.02;73.30;94027.47;5090812;28;20048;-39
2022/02/12 00:41:29;;;;;;;12.68;7.93;;;;;;;2.05;72.98;94019.13;5091217;28;20028;-39
2022/02/12 00:43:54;;;;;;;11.75;7.63;;;;;;;2.18;72.40;94019.50;5090669;28;20558;-37
2022/02/12 00:46:20;;;;;;;11.82;6.15;;;;;;;2.30;71.95;94028.50;5091254;28;20016;-38
2022/02/12 00:48:45;;;;;;;11.13;5.97;;;;;;;2.36;71.66;94007.50;5091084;28;20477;-35
2022/02/12 00:51:12;;;;;;;11.60;5.70;;;;;;;2.54;71.41;94020.78;5091036;28;20504;-40
2022/02/12 00:53:37;;;;;;;9.48;5.75;;;;;;;2.57;71.08;94024.53;5090982;28;20028;-38
2022/02/12 00:56:03;;;;;;;11.38;5.82;;;;;;;2.49;71.46;94032.38;5090652;28;20050;-37
2022/02/12 00:58:29;;;;;;;15.60;6.20;;;;;;;2.50;71.24;94031.19;5091284;28;20036;-36
2022/02/12 01:00:54;;;;;;;9.40;5.93;;;;;;;2.47;71.03;94034.13;5090762;28;20020;-38
2022/02/12 01:03:19;;;;;;;8.63;5.60;;;;;;;2.49;71.78;94031.66;5090576;28;20505;-38
2022/02/12 01:05:45;;;;;;;7.40;4.68;;;;;;;2.65;70.41;94031.03;5089199;28;20024;-38
2022/02/12 01:08:10;;;;;;;7.40;4.50;;;;;;;2.90;69.83;94025.53;5090899;28;20024;-39
2022/02/12 01:10:36;;;;;;;9.73;5.47;;;;;;;3.00;69.00;94045.97;5090879;28;20485;-39
2022/02/12 01:13:02;;;;;;;19.13;11.32;;;;;;;2.83;69.11;94028.72;5090496;28;20024;-40
2022/02/12 01:15:27;;;;;;;15.20;9.43;;;;;;;2.89;68.60;94042.41;5090653;28;20020;-38
2022/02/12 01:17:53;;;;;;;21.98;12.90;;;;;;;2.84;69.67;94052.03;5090325;28;20024;-37
2022/02/12 01:20:18;;;;;;;16.65;10.77;;;;;;;2.85;68.94;94050.06;5090660;28;20031;-38
2022/02/12 01:22:46;;;;;;;21.02;14.55;;;;;;;2.71;69.71;94054.41;5090643;28;20027;-38
2022/02/12 01:25:11;;;;;;;20.20;11.45;;;;;;;2.54;69.76;94050.03;5090563;28;20079;-38
2022/02/12 01:27:37;;;;;;;19.00;10.90;;;;;;;2.57;69.93;94058.00;5090241;28;20157;-40
2022/02/12 01:30:04;;;;;;;18.00;9.50;;;;;;;2.69;69.74;94056.84;5090521;28;20050;-40
2022/02/12 01:32:29;;;;;;;17.38;9.80;;;;;;;2.70;69.75;94055.63;5090148;28;20102;-40
2022/02/12 01:34:55;;;;;;;10.27;7.53;;;;;;;2.76;69.27;94058.41;5090453;28;20019;-41
2022/02/12 01:37:21;;;;;;;14.75;8.13;;;;;;;2.84;69.23;94059.44;5104238;28;20019;-40
2022/02/12 01:39:47;;;;;;;15.40;9.15;;;;;;;2.71;69.62;94053.63;5110456;28;20024;-40
2022/02/12 01:42:13;;;;;;;15.50;8.70;;;;;;;2.71;70.77;94057.13;5110517;28;20073;-41
2022/02/12 01:44:38;;;;;;;15.55;8.20;;;;;;;2.69;69.74;94070.50;5110667;28;20404;-40
2022/02/12 01:47:05;;;;;;;14.90;8.30;;;;;;;2.68;70.13;94062.81;5109273;28;20092;-41
2022/02/12 01:49:31;;;;;;;15.80;8.43;;;;;;;2.69;69.94;94067.75;5090298;28;20103;-41
2022/02/12 01:51:57;;;;;;;19.05;10.75;;;;;;;2.85;69.58;94078.06;5090001;28;20573;-40
2022/02/12 01:54:24;;;;;;;51.92;25.45;;;;;;;2.77;69.93;94071.53;5089558;28;20031;-39
2022/02/12 01:56:50;;;;;;;16.40;9.95;;;;;;;2.60;70.02;94069.94;5089670;28;20104;-40
2022/02/12 01:59:15;;;;;;;25.55;13.43;;;;;;;2.70;69.45;94071.25;5097770;28;20491;-40
2022/02/12 02:01:41;;;;;;;15.10;9.45;;;;;;;2.78;68.92;94077.75;5110553;28;20517;-42
2022/02/12 02:04:07;;;;;;;24.95;10.98;;;;;;;2.63;70.29;94072.44;5110106;28;20032;-40
2022/02/12 02:06:32;;;;;;;27.80;15.02;;;;;;;2.64;69.41;94075.91;5110239;28;20034;-40
2022/02/12 02:09:03;;;;;;;18.48;10.68;;;;;;;2.61;69.61;94077.63;5109238;28;20107;-40
2022/02/12 02:11:30;;;;;;;8.88;6.50;;;;;;;2.53;70.91;94083.97;5110502;28;20436;-38
2022/02/12 02:13:55;;;;;;;9.93;7.07;;;;;;;2.36;71.12;94078.34;5110385;28;20405;-39
2022/02/12 02:16:20;;;;;;;12.63;8.18;;;;;;;2.51;70.65;94081.75;5110522;28;20026;-39
2022/02/12 02:18:46;;;;;;;36.17;20.05;;;;;;;2.13;69.40;94071.94;5110319;28;20026;-41
2022/02/12 02:21:12;;;;;;;29.15;14.45;;;;;;;2.15;69.93;94088.53;5110300;28;20702;-42
2022/02/12 02:23:38;;;;;;;17.15;11.57;;;;;;;2.03;70.80;94086.94;5108768;28;20026;-42
2022/02/12 02:26:04;;;;;;;23.42;11.98;;;;;;;2.14;71.42;94091.75;5106757;28;20027;-42
2022/02/12 02:28:29;;;;;;;19.48;11.07;;;;;;;2.08;70.91;94091.69;5110327;28;20413;-39
2022/02/12 02:30:55;;;;;;;18.98;13.50;;;;;;;1.98;70.46;94101.22;5090548;28;20020;-36
2022/02/12 02:33:20;;;;;;;21.63;12.55;;;;;;;1.83;70.42;94097.06;5089595;28;20040;-39
2022/02/12 02:35:47;;;;;;;20.23;12.88;;;;;;;1.69;70.52;94081.56;5089600;28;20044;-37
2022/02/12 02:38:17;;;;;;;27.23;14.80;;;;;;;1.65;70.72;94078.28;5089550;28;20119;-39
2022/02/12 02:40:44;;;;;;;27.88;15.50;;;;;;;1.78;70.13;94108.63;5089661;28;20093;-38
2022/02/12 02:43:11;;;;;;;19.67;12.77;;;;;;;1.68;70.69;94108.03;5090698;28;20028;-37
2022/02/12 02:45:36;;;;;;;31.23;15.15;;;;;;;1.62;70.98;94109.94;5092118;28;20505;-38
2022/02/12 02:48:03;;;;;;;26.35;16.15;;;;;;;1.46;71.26;94113.91;5093545;28;20020;-40
2022/02/12 02:56:07;;;;;;;29.65;17.80;;;;;;;1.35;73.87;94110.28;5104962;28;20103;-42
2022/02/12 02:58:37;;;;;;;36.40;19.27;;;;;;;1.42;72.93;94115.34;5113772;28;20019;-42
2022/02/12 03:01:07;;;;;;;32.17;17.73;;;;;;;1.46;72.59;94124.81;5113533;28;20023;-41
2022/02/12 03:03:33;;;;;;;37.05;18.20;;;;;;;0.96;72.87;94125.25;5113295;28;20035;-40
2022/02/12 03:05:59;;;;;;;27.63;17.27;;;;;;;1.16;72.71;94120.66;5113444;28;20040;-40
2022/02/12 03:08:25;;;;;;;29.55;17.67;;;;;;;0.66;74.05;94117.13;5113142;28;20561;-41
2022/02/12 03:10:51;;;;;;;31.58;17.50;;;;;;;0.86;73.84;94124.63;5113170;28;20068;-40
2022/02/12 03:13:16;;;;;;;27.55;16.58;;;;;;;0.88;72.85;94124.91;5113013;28;20020;-40
2022/02/12 03:15:42;;;;;;;24.95;13.93;;;;;;;0.80;73.57;94115.66;5113301;28;20027;-39
2022/02/12 03:18:08;;;;;;;22.88;14.30;;;;;;;1.02;73.27;94120.69;5113345;28;20073;-41
2022/02/12 03:20:33;;;;;;;26.17;15.52;;;;;;;1.12;73.01;94124.78;5113282;28;20030;-41
2022/02/12 03:22:59;;;;;;;22.77;13.82;;;;;;;0.89;73.04;94139.25;5113202;28;20051;-40
2022/02/12 03:25:25;;;;;;;30.48;17.50;;;;;;;0.95;72.71;94140.09;5112658;28;20019;-39
2022/02/12 03:27:54;;;;;;;28.05;16.30;;;;;;;0.92;72.74;94139.06;5112835;28;20016;-39
2022/02/12 03:30:20;;;;;;;28.20;14.85;;;;;;;0.91;72.91;94132.09;5113174;28;20024;-40
2022/02/12 03:32:46;;;;;;;29.05;16.52;;;;;;;0.97;73.09;94146.56;5111663;28;20027;-40
2022/02/12 03:35:12;;;;;;;25.25;15.35;;;;;;;0.93;72.76;94139.81;5113113;28;20023;-40
2022/02/12 03:37:37;;;;;;;28.50;16.42;;;;;;;0.96;73.32;94147.00;5112103;27;20406;-40
2022/02/12 03:40:04;;;;;;;36.13;20.55;;;;;;;0.92;72.15;94151.91;5112650;28;20031;-40
2022/02/12 03:42:29;;;;;;;17.67;9.75;;;;;;;0.11;74.30;94161.56;5112795;28;20020;-40
2022/02/12 03:44:54;;;;;;;14.60;10.15;;;;;;;0.40;74.49;94156.16;5106252;28;20553;-40
2022/02/12 03:47:20;;;;;;;21.83;12.18;;;;;;;0.42;76.23;94167.31;5096684;28;20653;-40
2022/02/12 03:49:45;;;;;;;20.92;12.18;;;;;;;0.34;75.23;94172.38;5092242;28;20020;-40
2022/02/12 03:52:11;;;;;;;17.38;10.52;;;;;;;0.58;75.04;94172.31;5103373;28;20023;-38
2022/02/12 03:54:36;;;;;;;32.85;15.32;;;;;;;0.27;75.11;94172.72;5112012;28;20016;-37
2022/02/12 03:57:02;;;;;;;14.65;9.57;;;;;;;0.27;75.27;94177.41;5112516;28;20056;-40
2022/02/12 03:59:27;;;;;;;24.10;13.70;;;;;;;0.34;75.29;94164.22;5112450;28;20051;-40
2022/02/12 04:01:53;;;;;;;27.33;14.52;;;;;;;0.18;76.26;94164.66;5112390;28;20024;-34
2022/02/12 04:04:18;;;;;;;20.15;10.38;;;;;;;0.27;76.75;94166.53;5111940;28;20026;-36
2022/02/12 04:06:44;;;;;;;23.50;12.43;;;;;;;0.19;77.04;94163.44;5111965;28;20035;-35
2022/02/12 04:09:09;;;;;;;27.33;12.85;;;;;;;0.34;77.14;94177.81;5112291;28;20016;-37
2022/02/12 04:11:35;;;;;;;21.25;13.23;;;;;;;0.57;77.18;94173.53;5111870;28;20496;-39
2022/02/12 04:14:00;;;;;;;27.50;16.75;;;;;;;0.59;75.57;94177.28;5112247;28;20019;-37
2022/02/12 04:16:25;;;;;;;31.92;20.95;;;;;;;0.61;75.53;94176.81;5112107;28;20648;-36
2022/02/12 04:18:51;;;;;;;40.03;17.80;;;;;;;0.72;75.34;94191.34;5111647;28;20512;-39
2022/02/12 04:21:16;;;;;;;45.90;26.65;;;;;;;0.62;74.14;94181.78;5111126;28;20500;-33
2022/02/12 04:23:42;;;;;;;51.45;26.67;;;;;;;0.31;75.82;94172.53;5111970;28;20020;-36
2022/02/12 04:26:09;;;;;;;69.53;41.97;;;;;;;0.02;76.55;94184.09;5111823;28;20416;-34
2022/02/12 04:28:36;;;;;;;50.13;29.80;;;;;;;0.13;76.19;94189.00;5111919;28;20031;-37
2022/02/12 04:31:04;;;;;;;54.53;29.05;;;;;;;0.07;76.30;94191.56;5111820;28;20020;-36
2022/02/12 04:33:29;;;;;;;48.15;24.65;;;;;;;0.10;76.89;94196.09;5111458;28;20484;-39
2022/02/12 04:35:55;;;;;;;26.70;17.48;;;;;;;-0.09;76.89;94187.31;5111387;28;20094;-35
2022/02/12 04:38:20;;;;;;;24.77;13.27;;;;;;;0.02;77.34;94205.06;5111341;27;20051;-40
2022/02/12 04:40:46;;;;;;;22.77;15.90;;;;;;;-0.26;77.78;94204.47;5111640;28;20055;-40
2022/02/12 04:43:11;;;;;;;19.50;9.77;;;;;;;0.08;77.28;94203.19;5111406;28;20024;-40
2022/02/12 04:45:37;;;;;;;28.33;12.43;;;;;;;0.16;77.04;94207.06;5111358;28;20454;-40
2022/02/12 04:48:03;;;;;;;20.27;12.93;;;;;;;0.36;76.77;94205.25;5111152;28;20077;-40
2022/02/12 04:50:29;;;;;;;21.73;14.68;;;;;;;0.24;77.24;94208.22;5111471;28;20039;-39
2022/02/12 04:52:55;;;;;;;21.08;14.15;;;;;;;-0.28;78.54;94220.47;5111408;28;20031;-40
2022/02/12 04:55:20;;;;;;;17.25;10.07;;;;;;;-0.10;77.71;94207.53;5111038;28;20011;-41
2022/02/12 04:57:46;;;;;;;23.27;15.15;;;;;;;0.27;79.29;94226.28;5111047;28;20122;-41
2022/02/12 05:00:12;;;;;;;20.27;13.55;;;;;;;0.28;78.94;94211.50;5111070;28;20094;-40
2022/02/12 05:02:37;;;;;;;31.25;19.92;;;;;;;0.15;77.19;94251.72;5111200;28;20019;-39
2022/02/12 05:05:03;;;;;;;20.00;13.75;;;;;;;0.22;76.74;94245.94;5110477;28;20452;-40
2022/02/12 05:07:29;;;;;;;24.75;14.32;;;;;;;0.31;78.60;94254.78;5109616;28;20071;-39
2022/02/12 05:09:54;;;;;;;67.43;36.90;;;;;;;0.00;77.87;94262.53;5111144;28;20027;-37
2022/02/12 05:12:20;;;;;;;41.33;27.17;;;;;;;-0.07;78.32;94266.31;5111194;28;20031;-39
2022/02/12 05:14:45;;;;;;;24.73;12.65;;;;;;;0.02;78.83;94267.47;5110775;28;20489;-39
2022/02/12 05:17:11;;;;;;;29.77;14.48;;;;;;;0.36;79.28;94269.69;5110761;28;20065;-39
2022/02/12 05:19:36;;;;;;;35.47;14.65;;;;;;;0.70;77.25;94272.59;5110875;28;20047;-41
2022/02/12 05:22:02;;;;;;;33.47;17.77;;;;;;;0.80;75.53;94276.00;5110999;28;20416;-38
2022/02/12 05:24:27;;;;;;;36.95;25.05;;;;;;;0.48;76.48;94288.44;5110585;28;20027;-36
2022/02/12 05:26:53;;;;;;;21.63;12.77;;;;;;;0.53;76.42;94289.78;5110126;28;20023;-37
2022/02/12 05:29:19;;;;;;;20.38;12.45;;;;;;;0.69;76.55;94265.66;5110512;28;20027;-37
2022/02/12 05:31:44;;;;;;;24.40;12.65;;;;;;;0.89;75.85;94291.50;5109968;28;20027;-38
2022/02/12 05:34:10;;;;;;;20.33;12.57;;;;;;;1.06;74.70;94300.69;5110074;28;20012;-38
2022/02/12 05:36:35;;;;;;;29.35;15.27;;;;;;;0.93;75.29;94300.97;5108401;28;20045;-37
2022/02/12 05:39:02;;;;;;;18.05;11.63;;;;;;;0.83;75.26;94288.66;5109564;28;20044;-36
2022/02/12 05:41:28;;;;;;;28.15;16.05;;;;;;;1.00;75.37;94306.03;5109918;28;20107;-38
2022/02/12 05:43:53;;;;;;;23.38;13.07;;;;;;;1.00;75.01;94319.63;5105066;28;20185;-38
2022/02/12 05:46:19;;;;;;;19.00;10.43;;;;;;;1.01;75.29;94320.38;5089807;28;20515;-39
2022/02/12 05:48:45;;;;;;;22.27;13.23;;;;;;;0.99;75.10;94331.72;5089839;28;20016;-39
2022/02/12 05:51:10;;;;;;;28.33;14.73;;;;;;;1.08;74.63;94330.91;5088391;28;20020;-38
2022/02/12 05:53:36;;;;;;;19.42;12.32;;;;;;;1.40;72.89;94335.44;5089534;28;20081;-39
2022/02/12 05:56:03;;;;;;;32.03;14.98;;;;;;;1.38;72.66;94327.75;5089358;28;20089;-38
2022/02/12 05:58:28;;;;;;;25.73;15.52;;;;;;;1.37;74.20;94342.56;5089463;28;20107;-39
2022/02/12 06:00:54;;;;;;;20.58;12.43;;;;;;;1.22;73.68;94349.19;5089265;28;20028;-39
2022/02/12 06:03:19;;;;;;;22.23;11.88;;;;;;;1.14;74.08;94356.97;5089391;28;20028;-38
2022/02/12 06:05:45;;;;;;;39.20;21.88;;;;;;;1.30;73.31;94359.25;5089111;28;20020;-39
2022/02/12 06:08:11;;;;;;;28.27;15.85;;;;;;;1.05;74.22;94361.72;5094987;28;20028;-38
2022/02/12 06:10:36;;;;;;;31.20;16.13;;;;;;;1.31;74.25;94365.44;5094047;28;20027;-39
2022/02/12 06:13:02;;;;;;;29.25;16.33;;;;;;;1.21;72.83;94343.00;5109793;28;20070;-40
2022/02/12 06:15:27;;;;;;;28.85;16.88;;;;;;;1.27;74.29;94383.91;5109946;28;20015;-40
2022/02/12 06:17:53;;;;;;;21.88;14.32;;;;;;;1.63;73.08;94378.16;5097471;28;20081;-39
2022/02/12 06:20:18;;;;;;;20.52;13.38;;;;;;;1.86;72.83;94374.59;5094326;28;20078;-38
2022/02/12 06:22:44;;;;;;;23.65;13.88;;;;;;;1.78;72.66;94376.19;5111947;28;20091;-38
2022/02/12 06:25:10;;;;;;;23.98;13.68;;;;;;;1.94;71.66;94378.44;5112258;28;20024;-37
2022/02/12 06:27:35;;;;;;;23.75;14.13;;;;;;;1.65;72.97;94388.56;5106048;28;20035;-39
2022/02/12 06:30:01;;;;;;;29.27;15.85;;;;;;;1.56;72.84;94381.22;5092648;28;20091;-38
2022/02/12 06:32:30;;;;;;;24.65;14.77;;;;;;;1.57;74.10;94384.72;5092712;28;20056;-36
2022/02/12 06:34:59;;;;;;;21.58;14.25;;;;;;;1.63;73.67;94397.19;5091750;28;20110;-39
2022/02/12 06:37:24;;;;;;;23.02;13.88;;;;;;;1.88;73.03;94402.13;5092010;28;20486;-37
2022/02/12 06:39:50;;;;;;;25.02;14.50;;;;;;;2.02;72.51;94403.31;5092773;28;20020;-35
2022/02/12 06:42:15;;;;;;;23.42;14.05;;;;;;;2.08;71.74;94415.06;5092419;28;20141;-35
2022/02/12 06:44:41;;;;;;;30.27;18.00;;;;;;;2.26;71.30;94409.41;5098361;28;20035;-36
2022/02/12 06:47:07;;;;;;;31.55;14.88;;;;;;;2.66;70.71;94406.03;5101304;28;20044;-37
2022/02/12 06:49:33;;;;;;;25.05;14.50;;;;;;;3.04;70.28;94420.19;5099851;28;20063;-38
2022/02/12 06:51:59;;;;;;;55.05;25.80;;;;;;;3.03;69.28;94428.88;5102980;28;20064;-41
2022/02/12 06:54:24;;;;;;;72.15;34.08;;;;;;;3.22;68.26;94427.38;5102406;28;20020;-39
2022/02/12 06:56:50;;;;;;;63.47;29.60;;;;;;;3.68;67.65;94433.59;5100763;28;20031;-40
2022/02/12 06:59:15;;;;;;;48.97;24.02;;;;;;;4.04;66.50;94420.56;5102303;28;20023;-40
2022/02/12 07:01:41;;;;;;;45.80;25.33;;;;;;;4.41;65.20;94422.16;5100655;28;20077;-39
2022/02/12 07:04:06;;;;;;;34.42;18.48;;;;;;;4.61;63.79;94435.69;5100063;28;20031;-39
2022/02/12 07:06:32;;;;;;;25.60;16.40;;;;;;;4.72;62.96;94420.63;5099452;28;20015;-40
2022/02/12 07:08:57;;;;;;;30.75;17.35;;;;;;;4.81;62.22;94439.59;5099874;28;20102;-40
2022/02/12 07:11:23;;;;;;;33.03;18.50;;;;;;;5.06;61.33;94444.22;5097341;28;20028;-41
2022/02/12 07:13:48;;;;;;;27.33;17.67;;;;;;;5.31;59.94;94437.88;5097862;28;20027;-40
2022/02/12 07:16:14;;;;;;;33.40;20.05;;;;;;;6.13;58.35;94444.19;5099655;28;20019;-40
2022/02/12 07:18:39;;;;;;;30.15;20.80;;;;;;;7.11;55.69;94447.41;5097416;28;20028;-40
2022/02/12 07:21:06;;;;;;;36.05;21.38;;;;;;;8.31;53.20;94442.72;5097817;28;20149;-42
2022/02/12 07:23:32;;;;;;;41.05;24.40;;;;;;;9.02;48.60;94424.13;5100457;28;20011;-41
2022/02/12 07:25:57;;;;;;;35.45;22.55;;;;;;;9.92;47.84;94446.69;5096090;28;20067;-41
2022/02/12 07:28:24;;;;;;;33.47;21.85;;;;;;;10.77;46.70;94448.56;5107823;28;20051;-41
2022/02/12 07:30:49;;;;;;;33.05;22.58;;;;;;;11.49;44.45;94435.53;5108966;28;20028;-41
2022/02/12 07:33:15;;;;;;;34.22;19.80;;;;;;;12.36;42.71;94442.63;5109774;28;20103;-42
2022/02/12 07:35:40;;;;;;;26.08;16.73;;;;;;;12.86;41.09;94445.72;5108788;28;20088;-41
2022/02/12 07:38:07;;;;;;;24.13;16.45;;;;;;;12.84;41.20;94453.84;5089079;28;20121;-41
2022/02/12 07:40:33;;;;;;;30.75;19.77;;;;;;;13.17;39.65;94452.31;5096909;28;20077;-41
2022/02/12 07:42:59;;;;;;;26.90;18.95;;;;;;;13.01;39.89;94456.25;5109383;28;20055;-41
2022/02/12 07:45:24;;;;;;;24.95;18.65;;;;;;;12.88;40.42;94447.97;5109259;28;20027;-41
2022/02/12 07:47:50;;;;;;;25.95;17.70;;;;;;;12.22;41.17;94433.59;5109623;28;20031;-41
2022/02/12 07:50:16;;;;;;;30.80;20.58;;;;;;;12.23;42.36;94450.94;5109510;28;20027;-41
2022/02/12 07:52:43;;;;;;;32.30;24.00;;;;;;;12.17;42.97;94449.03;5108993;28;20088;-41
2022/02/12 07:55:13;;;;;;;27.45;20.17;;;;;;;12.25;42.58;94451.91;5103288;28;20060;-42
2022/02/12 07:57:39;;;;;;;27.77;20.15;;;;;;;12.09;43.63;94459.28;5089190;28;20032;-42
2022/02/12 08:00:06;;;;;;;28.55;20.63;;;;;;;12.12;42.55;94446.41;5105532;28;20023;-41
2022/02/12 08:02:31;;;;;;;32.78;21.88;;;;;;;11.25;44.78;94459.34;5107505;28;20027;-42
2022/02/12 08:04:57;;;;;;;29.48;20.48;;;;;;;11.20;45.12;94443.56;5108281;28;20032;-41
2022/02/12 08:07:29;;;;;;;28.48;21.38;;;;;;;11.29;44.34;94462.53;5108248;28;20080;-41
2022/02/12 08:09:55;;;;;;;31.75;22.23;;;;;;;11.17;45.08;94452.94;5108735;28;20043;-41
2022/02/12 08:12:22;;;;;;;28.00;20.90;;;;;;;11.04;45.36;94463.97;5108930;28;20484;-42
2022/02/12 08:14:49;;;;;;;30.23;20.77;;;;;;;10.82;45.84;94461.56;5109030;28;20039;-41
2022/02/12 08:17:16;;;;;;;32.65;21.70;;;;;;;10.92;47.31;94448.06;5100027;28;20080;-40
2022/02/12 08:19:42;;;;;;;30.50;20.10;;;;;;;11.23;46.88;94469.41;5098400;28;20106;-41
2022/02/12 08:22:08;;;;;;;30.65;20.67;;;;;;;11.73;44.72;94474.09;5096822;28;20091;-41
2022/02/12 08:24:34;;;;;;;28.83;20.63;;;;;;;11.73;45.99;94472.06;5096288;28;20023;-41
2022/02/12 08:27:01;;;;;;;31.05;22.63;;;;;;;12.67;42.39;94470.09;5100853;28;20099;-41
2022/02/12 08:29:28;;;;;;;46.42;30.20;;;;;;;12.64;42.90;94470.44;5095723;28;20058;-41
2022/02/12 08:31:56;;;;;;;32.00;21.85;;;;;;;12.50;43.88;94460.66;5098434;28;20416;-42
2022/02/12 08:34:21;;;;;;;31.90;24.15;;;;;;;13.60;41.95;94468.38;5095249;28;20073;-41
2022/02/12 08:36:47;;;;;;;25.15;21.02;;;;;;;13.60;40.66;94463.59;5098196;28;20020;-41
2022/02/12 08:39:13;;;;;;;26.00;19.92;;;;;;;13.93;40.33;94466.75;5098715;28;20124;-41
2022/02/12 08:41:38;;;;;;;31.25;21.05;;;;;;;14.28;39.87;94463.25;5100006;28;20485;-41
2022/02/12 08:44:04;;;;;;;34.85;20.90;;;;;;;14.15;39.33;94464.13;5092743;28;20727;-42
2022/02/12 08:46:29;;;;;;;29.67;20.92;;;;;;;13.11;41.63;94459.28;5095233;28;20462;-41
2022/02/12 08:48:58;;;;;;;28.10;21.08;;;;;;;13.02;42.42;94456.97;5095209;28;20043;-42
2022/02/12 08:51:24;;;;;;;30.75;21.80;;;;;;;13.82;39.93;94461.53;5094998;28;20034;-41
2022/02/12 08:53:50;;;;;;;31.25;22.20;;;;;;;14.33;39.66;94468.69;5095854;28;20039;-41
2022/02/12 08:56:16;;;;;;;27.60;20.45;;;;;;;14.76;38.56;94464.38;5096773;28;20023;-42
2022/02/12 08:58:41;;;;;;;31.63;21.20;;;;;;;14.75;38.63;94466.41;5094432;28;20031;-42
2022/02/12 09:01:08;;;;;;;30.52;22.77;;;;;;;15.63;37.26;94464.88;5090397;28;20031;-41
2022/02/12 09:03:33;;;;;;;28.58;21.88;;;;;;;15.25;37.03;94458.53;5091478;28;20724;-41
2022/02/12 09:05:59;;;;;;;28.92;21.60;;;;;;;15.65;36.98;94459.50;5097292;28;20110;-42
2022/02/12 09:08:25;;;;;;;28.55;20.63;;;;;;;15.84;37.22;94468.94;5095009;28;20031;-41
2022/02/12 09:10:50;;;;;;;28.80;21.58;;;;;;;16.75;35.54;94467.94;5096344;28;20024;-42
2022/02/12 09:13:16;;;;;;;28.40;21.50;;;;;;;17.26;34.29;94459.88;5093839;28;20028;-42
2022/02/12 09:15:41;;;;;;;28.40;21.65;;;;;;;17.50;33.20;94467.50;5096938;28;20102;-42
2022/02/12 09:18:07;;;;;;;33.95;22.17;;;;;;;18.04;33.94;94463.69;5095867;28;20019;-42
2022/02/12 09:20:32;;;;;;;35.78;23.67;;;;;;;18.44;31.16;94455.09;5097348;28;20034;-44
2022/02/12 09:22:58;;;;;;;40.42;26.20;;;;;;;18.15;32.25;94473.66;5094154;28;20111;-44
2022/02/12 09:25:23;;;;;;;29.92;18.45;;;;;;;18.15;32.11;94471.59;5094242;28;20031;-41
2022/02/12 09:27:49;;;;;;;19.45;15.30;;;;;;;18.56;30.43;94470.06;5097936;28;20027;-42
2022/02/12 09:30:14;;;;;;;20.60;16.10;;;;;;;18.83;30.08;94470.13;5096106;28;20024;-42
2022/02/12 09:32:40;;;;;;;36.90;21.05;;;;;;;19.37;30.33;94476.50;5102555;28;20036;-43
2022/02/12 09:35:06;;;;;;;26.38;17.52;;;;;;;19.05;29.83;94476.72;5087478;28;20024;-42
2022/02/12 09:37:31;;;;;;;22.52;16.33;;;;;;;19.29;29.96;94470.25;5086525;28;20486;-42
2022/02/12 09:39:57;;;;;;;20.50;15.90;;;;;;;19.21;29.69;94478.03;5086833;28;20032;-42
2022/02/12 09:42:22;;;;;;;25.23;19.15;;;;;;;19.83;29.00;94460.47;5090623;28;20097;-42
2022/02/12 09:44:48;;;;;;;29.45;20.23;;;;;;;20.04;29.23;94468.31;5107677;28;20028;-42
2022/02/12 09:47:28;;;;;;;23.67;18.20;;;;;;;20.19;29.04;94468.06;5107500;28;20031;-43
2022/02/12 09:49:58;;;;;;;22.83;18.95;;;;;;;19.69;29.62;94473.38;5107466;28;20063;-41
2022/02/12 09:52:29;;;;;;;23.02;17.55;;;;;;;19.48;29.05;94473.16;5109024;28;20031;-42
2022/02/12 09:54:55;;;;;;;20.58;15.20;;;;;;;19.89;28.24;94469.31;5111462;27;20732;-42
2022/02/12 09:57:21;;;;;;;19.85;14.48;;;;;;;19.66;28.43;94466.16;5111573;28;20121;-42
2022/02/12 09:59:46;;;;;;;18.65;15.80;;;;;;;19.76;28.59;94464.13;5111587;28;20176;-42
2022/02/12 10:02:18;;;;;;;19.70;14.57;;;;;;;20.24;27.79;94465.00;5111547;28;20107;-42
2022/02/12 10:04:43;;;;;;;17.40;13.88;;;;;;;20.49;27.37;94464.00;5111042;28;20059;-42
2022/02/12 10:07:22;;;;;;;26.13;15.90;;;;;;;20.65;26.79;94460.28;5111126;28;20055;-41
2022/02/12 10:09:48;;;;;;;17.00;14.40;;;;;;;20.94;26.59;94449.03;5111499;28;20107;-42
2022/02/12 10:12:23;;;;;;;22.48;15.95;;;;;;;21.14;25.90;94440.00;5109780;28;20498;-42
2022/02/12 10:14:49;;;;;;;20.85;15.95;;;;;;;20.86;27.09;94446.38;5111042;28;20054;-42
2022/02/12 10:17:17;;;;;;;455.77;218.68;;;;;;;19.87;27.77;94457.22;5110680;28;20507;-42
2022/02/12 10:19:44;;;;;;;272.00;123.70;;;;;;;19.17;28.45;94438.47;5110081;28;20106;-41
2022/02/12 10:22:14;;;;;;;1519.05;738.28;;;;;;;18.76;27.30;94445.75;5109350;28;20036;-42
2022/02/12 10:24:50;;;;;;;397.25;207.85;;;;;;;18.81;29.64;94444.78;5109635;28;20039;-41
2022/02/12 10:27:16;;;;;;;28.60;21.27;;;;;;;19.82;27.56;94444.22;5110847;28;20035;-42
2022/02/12 10:29:45;;;;;;;22.83;17.88;;;;;;;19.49;28.65;94438.94;5107495;27;20508;-42
2022/02/12 10:32:11;;;;;;;36.80;18.35;;;;;;;19.50;23.12;94436.91;5113029;28;20034;-42
2022/02/12 10:34:43;;;;;;;4.45;4.05;;;;;;;18.63;22.94;94437.72;5112355;28;20027;-42
2022/02/12 10:37:11;;;;;;;3.80;3.38;;;;;;;17.85;23.11;94434.81;5099816;28;20782;-41
2022/02/12 10:40:00;;;;;;;278.13;122.47;;;;;;;17.16;22.50;94433.88;5092807;28;20024;-41
2022/02/12 10:42:28;;;;;;;19.00;13.30;;;;;;;17.01;23.73;94434.72;5092662;28;20053;-42
2022/02/12 10:44:54;;;;;;;3.97;3.53;;;;;;;17.01;22.22;94433.97;5092152;28;20032;-42
2022/02/12 10:47:21;;;;;;;6.80;5.65;;;;;;;17.11;22.70;94437.63;5092225;28;20115;-42
2022/02/12 10:49:48;;;;;;;5.47;3.40;;;;;;;17.24;23.66;94437.34;5092256;28;20028;-42
2022/02/12 10:52:14;;;;;;;4.20;2.83;;;;;;;17.72;23.56;94426.75;5092169;28;20028;-41
2022/02/12 10:54:50;;;;;;;9.65;3.25;;;;;;;18.23;22.19;94417.69;5092459;28;20123;-42
2022/02/12 10:57:17;;;;;;;8.60;2.67;;;;;;;18.04;22.08;94423.84;5091635;28;20032;-42
2022/02/12 10:59:44;;;;;;;11.50;3.40;;;;;;;18.21;22.24;94414.72;5090561;28;20036;-42
2022/02/12 11:02:15;;;;;;;5.47;2.97;;;;;;;18.42;22.06;94406.63;5090734;28;20055;-41
2022/02/12 11:04:41;;;;;;;15.73;6.60;;;;;;;18.45;21.47;94400.66;5089168;28;20031;-42
2022/02/12 11:07:10;;;;;;;11.70;6.55;;;;;;;19.15;22.35;94399.88;5089912;28;20032;-42
2022/02/12 11:09:36;;;;;;;2.58;2.30;;;;;;;20.05;20.09;94399.72;5088603;28;20024;-41
2022/02/12 11:12:04;;;;;;;1.98;1.33;;;;;;;19.80;19.44;94399.22;5090220;28;20034;-42
2022/02/12 11:14:35;;;;;;;1.40;1.10;;;;;;;19.81;20.88;94403.53;5089613;28;20027;-42
2022/02/12 11:17:07;;;;;;;4.45;3.08;;;;;;;19.62;19.70;94388.13;5091446;28;20479;-41
2022/02/12 11:19:33;;;;;;;2.30;1.90;;;;;;;19.14;19.85;94398.41;5091462;28;20032;-42
2022/02/12 11:22:01;;;;;;;2.70;1.75;;;;;;;18.87;20.58;94386.47;5090173;28;20024;-41
2022/02/12 11:24:40;;;;;;;2.17;1.98;;;;;;;19.31;20.69;94392.75;5091238;28;20500;-41